Time;durP1;ratioP1;P1;durP2;ratioP2;P2;SDS_P1;SDS_P2;PMS_P1;PMS_P2;Temp;Humidity;BMP_temperature;BMP_pressure;BME280_temperature;BME280_humidity;BME280_pressure;Samples;Min_cycle;Max_cycle;Signal;HPM_P1;HPM_P2
2024/01/05 00:01:33;;;;;;;7.07;2.40;;;10.30;99.90;;;;;;5096619;28;20172;-61
2024/01/05 00:04:00;;;;;;;8.75;2.20;;;10.30;99.90;;;;;;5096546;28;20177;-61
2024/01/05 00:06:26;;;;;;;8.20;2.60;;;10.30;99.90;;;;;;5096722;28;20647;-61
2024/01/05 00:08:52;;;;;;;10.48;2.60;;;10.30;99.90;;;;;;5096204;28;20603;-62
2024/01/05 00:11:20;;;;;;;8.32;2.42;;;10.40;99.90;;;;;;5096444;28;20206;-61
2024/01/05 00:13:47;;;;;;;7.18;2.17;;;10.30;99.90;;;;;;5096423;28;20511;-62
2024/01/05 00:16:20;;;;;;;11.50;2.42;;;10.40;99.90;;;;;;5096387;28;20174;-61
2024/01/05 00:18:46;;;;;;;8.82;2.38;;;10.40;99.90;;;;;;5096364;28;20189;-61
2024/01/05 00:21:21;;;;;;;8.38;2.25;;;10.30;99.90;;;;;;5095605;28;20216;-61
2024/01/05 00:23:47;;;;;;;9.40;2.60;;;10.40;99.90;;;;;;5095707;28;20267;-61
2024/01/05 00:26:13;;;;;;;11.60;3.00;;;10.40;99.90;;;;;;5095868;28;20252;-61
2024/01/05 00:28:39;;;;;;;12.40;2.70;;;10.40;99.90;;;;;;5096165;28;20205;-62
2024/01/05 00:31:04;;;;;;;6.15;1.95;;;10.30;99.90;;;;;;5095742;28;20232;-61
2024/01/05 00:33:30;;;;;;;6.68;2.35;;;10.30;99.90;;;;;;5077858;28;20223;-61
2024/01/05 00:35:56;;;;;;;10.00;2.63;;;10.20;99.90;;;;;;5095972;28;20181;-61
2024/01/05 00:38:22;;;;;;;5.65;2.10;;;10.30;99.90;;;;;;5095957;28;20227;-61
2024/01/05 00:40:47;;;;;;;8.25;2.22;;;10.30;99.90;;;;;;5095939;28;20177;-61
2024/01/05 00:43:13;;;;;;;7.13;2.20;;;10.20;99.90;;;;;;5095844;28;20174;-61
2024/01/05 00:45:39;;;;;;;8.93;2.78;;;10.20;99.90;;;;;;5095781;28;20182;-62
2024/01/05 00:48:05;;;;;;;5.95;2.35;;;10.20;99.90;;;;;;5095858;28;20205;-62
2024/01/05 00:50:30;;;;;;;7.20;2.45;;;10.30;99.90;;;;;;5095761;28;20527;-61
2024/01/05 00:52:56;;;;;;;10.38;2.55;;;10.30;99.90;;;;;;5095679;28;20182;-61
2024/01/05 00:55:23;;;;;;;7.95;2.35;;;10.30;99.90;;;;;;5095685;28;20261;-61
2024/01/05 00:57:49;;;;;;;7.75;2.50;;;10.30;99.90;;;;;;5095573;28;20212;-61
2024/01/05 01:00:15;;;;;;;6.07;2.20;;;10.30;99.90;;;;;;5095547;28;20631;-62
2024/01/05 01:02:41;;;;;;;7.18;2.45;;;10.30;99.90;;;;;;5095450;28;20264;-61
2024/01/05 01:05:07;;;;;;;8.52;2.50;;;10.20;99.90;;;;;;5095522;28;20209;-61
2024/01/05 01:07:33;;;;;;;7.78;2.42;;;10.20;99.90;;;;;;5095301;28;20546;-61
2024/01/05 01:09:59;;;;;;;9.25;2.50;;;10.10;99.90;;;;;;5095375;28;20181;-61
2024/01/05 01:12:26;;;;;;;6.68;2.28;;;10.20;99.90;;;;;;5095274;28;20212;-61
2024/01/05 01:14:52;;;;;;;7.65;2.22;;;10.20;99.90;;;;;;5095289;28;20238;-62
2024/01/05 01:17:18;;;;;;;6.95;2.03;;;10.10;99.90;;;;;;5095232;28;20176;-61
2024/01/05 01:19:44;;;;;;;8.15;2.28;;;10.10;99.90;;;;;;5095131;28;20276;-61
2024/01/05 01:22:09;;;;;;;7.68;2.60;;;10.20;99.90;;;;;;5095103;28;20173;-61
2024/01/05 01:24:35;;;;;;;5.82;1.88;;;10.20;99.90;;;;;;5095338;28;20245;-62
2024/01/05 01:27:01;;;;;;;8.00;2.20;;;10.20;99.90;;;;;;5095017;28;20728;-61
2024/01/05 01:29:27;;;;;;;7.15;2.10;;;10.20;99.90;;;;;;5094956;28;20228;-61
2024/01/05 01:31:53;;;;;;;8.05;2.70;;;10.20;99.90;;;;;;5094646;28;20173;-61
2024/01/05 01:34:18;;;;;;;9.05;1.95;;;10.20;99.90;;;;;;5094579;28;20269;-61
2024/01/05 01:36:44;;;;;;;7.57;2.05;;;10.10;99.90;;;;;;5094971;28;20203;-61
2024/01/05 01:39:11;;;;;;;6.72;2.35;;;10.20;99.90;;;;;;5094840;28;20183;-61
2024/01/05 01:41:37;;;;;;;7.50;2.00;;;10.30;99.90;;;;;;5094669;28;20188;-61
2024/01/05 01:44:02;;;;;;;6.82;1.92;;;10.20;99.90;;;;;;5094738;28;20174;-61
2024/01/05 01:46:29;;;;;;;9.18;2.20;;;10.30;99.90;;;;;;5089923;28;20229;-61
2024/01/05 01:48:55;;;;;;;5.68;2.03;;;10.20;99.90;;;;;;5074285;28;20179;-61
2024/01/05 01:51:22;;;;;;;5.22;1.95;;;10.20;99.90;;;;;;5074305;28;20179;-61
2024/01/05 01:53:48;;;;;;;6.22;2.10;;;10.10;99.90;;;;;;5074335;28;20175;-61
2024/01/05 01:56:14;;;;;;;5.30;1.65;;;10.10;99.90;;;;;;5074232;28;20232;-61
2024/01/05 01:58:42;;;;;;;4.97;1.70;;;10.20;99.90;;;;;;5074165;28;20183;-62
2024/01/05 02:01:08;;;;;;;9.02;2.22;;;10.20;99.90;;;;;;5073848;28;20636;-61
2024/01/05 02:03:35;;;;;;;8.20;2.08;;;10.30;99.90;;;;;;5074036;28;20315;-61
2024/01/05 02:06:00;;;;;;;6.82;1.75;;;10.20;99.90;;;;;;5073969;28;20548;-61
2024/01/05 02:08:27;;;;;;;6.55;1.73;;;10.20;99.90;;;;;;5074028;28;20200;-62
2024/01/05 02:10:53;;;;;;;6.43;1.85;;;10.20;99.90;;;;;;5073951;28;20171;-61
2024/01/05 02:13:20;;;;;;;5.55;1.88;;;10.20;99.90;;;;;;5074257;28;20639;-61
2024/01/05 02:15:45;;;;;;;6.57;2.20;;;10.20;99.90;;;;;;5074074;28;20192;-61
2024/01/05 02:18:12;;;;;;;5.03;1.52;;;10.10;99.90;;;;;;5073883;28;20253;-61
2024/01/05 02:20:38;;;;;;;7.50;1.98;;;10.10;99.90;;;;;;5073837;28;20170;-62
2024/01/05 02:23:09;;;;;;;4.60;1.55;;;10.10;99.90;;;;;;5073814;28;20178;-62
2024/01/05 02:25:35;;;;;;;5.88;1.92;;;10.10;99.90;;;;;;5073804;28;20524;-61
2024/01/05 02:28:01;;;;;;;3.95;1.33;;;10.10;99.90;;;;;;5073673;28;20213;-61
2024/01/05 02:30:26;;;;;;;4.45;1.67;;;10.10;99.90;;;;;;5073680;28;20178;-62
2024/01/05 02:32:52;;;;;;;8.10;1.95;;;10.10;99.90;;;;;;5073897;28;20178;-61
2024/01/05 02:35:18;;;;;;;6.93;2.05;;;10.10;99.90;;;;;;5073605;28;20174;-60
2024/01/05 02:37:43;;;;;;;6.43;1.70;;;10.10;99.90;;;;;;5073623;28;20213;-61
2024/01/05 02:40:11;;;;;;;7.78;1.73;;;10.10;99.90;;;;;;5073587;28;20216;-60
2024/01/05 02:42:38;;;;;;;4.35;1.42;;;10.10;99.90;;;;;;5073808;28;20647;-61
2024/01/05 02:45:04;;;;;;;4.68;1.92;;;10.20;99.90;;;;;;5072767;28;20179;-62
2024/01/05 02:47:30;;;;;;;4.88;1.70;;;10.20;99.90;;;;;;5073418;28;20206;-60
2024/01/05 02:49:56;;;;;;;8.30;1.75;;;10.30;99.90;;;;;;5073534;28;20182;-61
2024/01/05 02:52:21;;;;;;;6.53;2.05;;;10.30;99.90;;;;;;5073482;28;20179;-61
2024/01/05 02:54:47;;;;;;;7.05;1.83;;;10.20;99.90;;;;;;5073448;28;20175;-61
2024/01/05 02:57:13;;;;;;;7.15;1.75;;;10.30;99.90;;;;;;5073679;28;20179;-61
2024/01/05 02:59:38;;;;;;;8.20;2.20;;;10.20;99.90;;;;;;5073367;28;20178;-61
2024/01/05 03:02:04;;;;;;;5.10;1.90;;;10.20;99.90;;;;;;5073362;28;20178;-61
2024/01/05 03:04:29;;;;;;;5.72;1.88;;;10.30;99.90;;;;;;5073098;28;20171;-61
2024/01/05 03:06:55;;;;;;;5.15;1.80;;;10.20;99.90;;;;;;5072995;28;20210;-61
2024/01/05 03:09:21;;;;;;;5.07;1.70;;;10.20;99.90;;;;;;5073314;28;20571;-61
2024/01/05 03:11:46;;;;;;;9.63;2.28;;;10.20;99.90;;;;;;5073248;28;20628;-61
2024/01/05 03:14:13;;;;;;;7.90;1.75;;;10.20;99.90;;;;;;5072986;28;20232;-61
2024/01/05 03:16:39;;;;;;;5.57;1.88;;;10.20;99.90;;;;;;5073153;28;20190;-61
2024/01/05 03:19:05;;;;;;;4.97;1.77;;;10.10;99.90;;;;;;5074526;28;20212;-60
2024/01/05 03:21:31;;;;;;;6.57;1.80;;;10.20;99.90;;;;;;5093604;28;20186;-61
2024/01/05 03:23:57;;;;;;;4.05;1.52;;;10.20;99.90;;;;;;5093289;28;20221;-61
2024/01/05 03:26:23;;;;;;;4.72;1.55;;;10.20;99.90;;;;;;5093587;28;20225;-61
2024/01/05 03:28:48;;;;;;;5.35;1.52;;;10.00;99.90;;;;;;5093248;28;20182;-61
2024/01/05 03:31:14;;;;;;;5.55;1.17;;;10.10;99.90;;;;;;5093304;28;20176;-61
2024/01/05 03:33:40;;;;;;;2.42;1.00;;;10.00;99.90;;;;;;5093235;28;20173;-61
2024/01/05 03:36:06;;;;;;;3.15;1.20;;;10.00;99.90;;;;;;5093188;28;20178;-61
2024/01/05 03:38:32;;;;;;;4.82;1.52;;;9.90;99.90;;;;;;5093307;28;20223;-61
2024/01/05 03:40:58;;;;;;;2.70;0.80;;;9.80;99.90;;;;;;5093233;28;20550;-61
2024/01/05 03:43:24;;;;;;;3.03;1.10;;;9.80;99.90;;;;;;5093164;28;20170;-61
2024/01/05 03:45:50;;;;;;;2.22;0.80;;;9.70;99.90;;;;;;5093134;28;20504;-61
2024/01/05 03:48:16;;;;;;;2.03;0.60;;;9.70;99.90;;;;;;5093165;28;20194;-61
2024/01/05 03:50:42;;;;;;;2.33;0.80;;;9.70;99.90;;;;;;5093135;28;20188;-61
2024/01/05 03:53:08;;;;;;;2.45;0.75;;;9.60;99.90;;;;;;5093085;28;20177;-61
2024/01/05 03:55:33;;;;;;;1.48;0.60;;;9.60;99.90;;;;;;5093332;28;20231;-61
2024/01/05 03:57:59;;;;;;;3.45;0.80;;;9.50;99.90;;;;;;5096768;28;20623;-61
2024/01/05 04:00:25;;;;;;;2.00;0.70;;;9.50;99.90;;;;;;5096761;28;20178;-61
2024/01/05 04:02:50;;;;;;;4.88;1.00;;;9.50;99.90;;;;;;5096709;28;20231;-61
2024/01/05 04:05:16;;;;;;;1.08;0.47;;;9.50;99.90;;;;;;5096689;28;20170;-61
2024/01/05 04:07:41;;;;;;;3.80;0.70;;;9.60;99.90;;;;;;5096242;28;20206;-61
2024/01/05 04:10:07;;;;;;;3.00;0.70;;;9.60;99.90;;;;;;5096586;28;20300;-61
2024/01/05 04:12:33;;;;;;;1.35;0.52;;;9.50;99.90;;;;;;5096542;28;20181;-60
2024/01/05 04:14:58;;;;;;;2.42;0.60;;;9.40;99.90;;;;;;5096487;28;20174;-61
2024/01/05 04:17:24;;;;;;;1.80;0.60;;;9.40;99.90;;;;;;5096435;28;20193;-61
2024/01/05 04:19:50;;;;;;;2.60;0.60;;;9.30;99.90;;;;;;5096428;28;20178;-62
2024/01/05 04:22:15;;;;;;;1.48;0.50;;;9.30;99.90;;;;;;5096269;28;20166;-61
2024/01/05 04:24:41;;;;;;;0.85;0.57;;;9.20;99.90;;;;;;5095887;28;20229;-60
2024/01/05 04:27:07;;;;;;;1.13;0.45;;;9.10;99.90;;;;;;5096185;28;20201;-61
2024/01/05 04:29:32;;;;;;;2.10;0.65;;;9.10;99.90;;;;;;5096415;28;20209;-61
2024/01/05 04:31:58;;;;;;;1.20;0.55;;;9.20;99.90;;;;;;5096134;28;20635;-61
2024/01/05 04:34:24;;;;;;;1.98;0.60;;;9.20;99.90;;;;;;5095830;28;20702;-61
2024/01/05 04:36:49;;;;;;;1.83;0.63;;;9.20;99.90;;;;;;5095760;28;20186;-61
2024/01/05 04:39:16;;;;;;;1.38;0.47;;;9.00;99.90;;;;;;5096012;28;20176;-61
2024/01/05 04:41:43;;;;;;;0.52;0.40;;;9.10;99.90;;;;;;5095901;28;20180;-60
2024/01/05 04:44:08;;;;;;;1.27;0.55;;;9.00;99.90;;;;;;5095842;28;20244;-61
2024/01/05 04:46:34;;;;;;;2.25;0.82;;;9.10;99.90;;;;;;5095807;28;20643;-61
2024/01/05 04:49:00;;;;;;;1.35;0.70;;;9.00;99.90;;;;;;5095816;28;20182;-61
2024/01/05 04:51:25;;;;;;;0.85;0.47;;;8.90;99.90;;;;;;5095807;28;20174;-62
2024/01/05 04:53:51;;;;;;;0.82;0.50;;;9.00;99.90;;;;;;5095854;28;20181;-62
2024/01/05 04:56:17;;;;;;;1.20;0.47;;;9.00;99.90;;;;;;5095668;28;20227;-61
2024/01/05 04:58:42;;;;;;;1.55;0.40;;;8.90;99.90;;;;;;5095208;28;20190;-61
2024/01/05 05:01:08;;;;;;;0.73;0.50;;;8.80;99.90;;;;;;5095908;28;20181;-61
2024/01/05 05:03:34;;;;;;;2.05;0.60;;;8.80;99.90;;;;;;5095530;28;20174;-61
2024/01/05 05:05:59;;;;;;;0.70;0.57;;;8.90;99.90;;;;;;5095314;28;20174;-61
2024/01/05 05:08:25;;;;;;;1.95;0.50;;;8.70;99.90;;;;;;5094730;28;20178;-61
2024/01/05 05:10:51;;;;;;;0.57;0.40;;;8.70;99.90;;;;;;5095417;28;20174;-61
2024/01/05 05:13:16;;;;;;;1.55;0.50;;;8.60;99.90;;;;;;5095379;28;20170;-62
2024/01/05 05:15:42;;;;;;;2.47;0.52;;;8.70;99.90;;;;;;5095232;28;20255;-61
2024/01/05 05:18:08;;;;;;;1.50;0.45;;;8.60;99.90;;;;;;5095780;28;20174;-62
2024/01/05 05:20:33;;;;;;;0.85;0.40;;;8.60;99.90;;;;;;5095161;28;20177;-62
2024/01/05 05:22:59;;;;;;;1.55;0.50;;;8.60;99.90;;;;;;5095007;28;20530;-61
2024/01/05 05:25:25;;;;;;;1.08;0.50;;;8.50;99.90;;;;;;5095117;28;20650;-62
2024/01/05 05:27:50;;;;;;;0.57;0.43;;;8.40;99.90;;;;;;5094602;28;20209;-62
2024/01/05 05:30:17;;;;;;;0.95;0.40;;;8.40;99.90;;;;;;5095031;28;20181;-62
2024/01/05 05:32:43;;;;;;;0.98;0.75;;;8.40;99.90;;;;;;5094900;28;20717;-61
2024/01/05 05:35:09;;;;;;;0.80;0.60;;;8.60;99.90;;;;;;5094941;28;20265;-62
2024/01/05 05:37:34;;;;;;;2.80;0.85;;;8.70;99.90;;;;;;5094893;28;20174;-62
2024/01/05 05:40:00;;;;;;;1.20;0.60;;;8.50;99.90;;;;;;5094532;28;20639;-62
2024/01/05 05:42:26;;;;;;;3.38;0.65;;;8.40;99.90;;;;;;5094750;28;20185;-61
2024/01/05 05:44:52;;;;;;;0.93;0.60;;;8.50;99.90;;;;;;5094751;28;20174;-62
2024/01/05 05:47:17;;;;;;;1.30;0.60;;;8.40;99.90;;;;;;5094533;28;20528;-61
2024/01/05 05:49:43;;;;;;;1.52;0.50;;;8.40;99.90;;;;;;5094917;28;20184;-61
2024/01/05 05:52:08;;;;;;;1.98;0.57;;;8.50;99.90;;;;;;5094565;28;20190;-62
2024/01/05 05:54:34;;;;;;;2.40;0.68;;;8.40;99.90;;;;;;5094303;28;20172;-62
2024/01/05 05:57:00;;;;;;;1.20;0.63;;;8.30;99.90;;;;;;5094563;28;20174;-62
2024/01/05 05:59:26;;;;;;;1.75;0.60;;;8.40;99.90;;;;;;5094160;28;20590;-62
2024/01/05 06:01:52;;;;;;;3.53;0.60;;;8.40;99.90;;;;;;5094376;28;20213;-61
2024/01/05 06:04:18;;;;;;;2.50;0.80;;;8.40;99.90;;;;;;5094926;28;20205;-61
2024/01/05 06:06:44;;;;;;;2.30;0.60;;;8.40;99.90;;;;;;5093975;28;20205;-62
2024/01/05 06:09:11;;;;;;;1.88;0.70;;;8.30;99.90;;;;;;5094286;28;20205;-62
2024/01/05 06:11:37;;;;;;;1.83;0.70;;;8.20;99.90;;;;;;5093857;28;20734;-62
2024/01/05 06:14:04;;;;;;;1.83;0.80;;;8.10;99.90;;;;;;5094457;28;20252;-62
2024/01/05 06:16:30;;;;;;;2.28;0.73;;;8.20;99.90;;;;;;5094525;28;20268;-61
2024/01/05 06:18:55;;;;;;;1.45;0.68;;;8.10;99.90;;;;;;5093872;28;20265;-64
2024/01/05 06:21:21;;;;;;;2.72;0.98;;;8.10;99.90;;;;;;5093495;28;20181;-62
2024/01/05 06:23:47;;;;;;;1.67;0.70;;;8.00;99.90;;;;;;5093951;28;20229;-62
2024/01/05 06:26:12;;;;;;;2.45;0.73;;;8.00;99.90;;;;;;5093967;28;20201;-62
2024/01/05 06:28:38;;;;;;;1.80;0.73;;;8.00;99.90;;;;;;5093943;28;20271;-62
2024/01/05 06:31:05;;;;;;;1.45;0.60;;;8.00;99.90;;;;;;5093955;28;20364;-62
2024/01/05 06:33:31;;;;;;;0.95;0.60;;;8.00;99.90;;;;;;5093654;28;20527;-62
2024/01/05 06:35:57;;;;;;;0.95;0.88;;;8.00;99.90;;;;;;5093758;28;20177;-62
2024/01/05 06:38:22;;;;;;;3.78;0.90;;;8.00;99.90;;;;;;5093589;28;20647;-62
2024/01/05 06:40:48;;;;;;;4.43;0.95;;;8.00;99.90;;;;;;5093942;28;20515;-62
2024/01/05 06:43:13;;;;;;;2.65;0.82;;;8.00;99.90;;;;;;5093969;28;20622;-62
2024/01/05 06:45:39;;;;;;;1.77;0.93;;;8.00;99.90;;;;;;5093924;28;20173;-62
2024/01/05 06:48:06;;;;;;;2.15;1.27;;;7.90;99.90;;;;;;5093575;28;20658;-62
2024/01/05 06:50:31;;;;;;;2.10;1.02;;;8.00;99.90;;;;;;5093768;28;20170;-62
2024/01/05 06:52:57;;;;;;;1.77;1.08;;;8.00;99.90;;;;;;5093605;28;20182;-62
2024/01/05 06:55:22;;;;;;;4.03;1.20;;;8.00;99.90;;;;;;5090545;28;20546;-62
2024/01/05 06:57:48;;;;;;;3.38;1.38;;;7.90;99.90;;;;;;5081339;28;20511;-62
2024/01/05 07:00:14;;;;;;;2.92;0.80;;;8.00;99.90;;;;;;5085039;28;20690;-62
2024/01/05 07:02:40;;;;;;;2.70;0.70;;;7.80;99.90;;;;;;5082871;28;20235;-62
2024/01/05 07:05:06;;;;;;;0.75;0.52;;;7.70;99.90;;;;;;5084790;28;20180;-61
2024/01/05 07:07:32;;;;;;;1.90;0.40;;;7.50;99.90;;;;;;5074641;28;20206;-62
2024/01/05 07:09:58;;;;;;;0.80;0.32;;;7.40;99.90;;;;;;5073054;28;20261;-62
2024/01/05 07:12:24;;;;;;;0.65;0.40;;;7.50;99.90;;;;;;5073038;28;20175;-62
2024/01/05 07:14:50;;;;;;;4.85;0.60;;;7.30;99.90;;;;;;5073059;28;20520;-62
2024/01/05 07:17:15;;;;;;;0.73;0.35;;;7.30;99.90;;;;;;5073030;28;20181;-62
2024/01/05 07:19:41;;;;;;;1.00;0.50;;;7.30;99.90;;;;;;5073304;28;20220;-62
2024/01/05 07:22:07;;;;;;;0.40;0.40;;;7.30;99.90;;;;;;5073019;28;20259;-62
2024/01/05 07:24:35;;;;;;;2.53;0.68;;;7.30;99.90;;;;;;5073147;28;20236;-62
2024/01/05 07:27:01;;;;;;;0.75;0.25;;;7.20;99.90;;;;;;5091977;28;20207;-62
2024/01/05 07:29:27;;;;;;;0.60;0.30;;;7.10;99.90;;;;;;5093385;28;20265;-62
2024/01/05 07:31:52;;;;;;;0.75;0.40;;;7.10;99.90;;;;;;5095368;28;20188;-62
2024/01/05 07:34:18;;;;;;;0.47;0.45;;;7.10;99.90;;;;;;5083491;28;20170;-62
2024/01/05 07:36:44;;;;;;;1.35;0.47;;;7.20;99.90;;;;;;5095681;28;20181;-62
2024/01/05 07:39:11;;;;;;;0.52;0.45;;;7.30;99.90;;;;;;5096728;28;20182;-62
2024/01/05 07:41:37;;;;;;;0.65;0.40;;;7.30;99.90;;;;;;5097024;28;20216;-62
2024/01/05 07:44:02;;;;;;;0.50;0.50;;;7.20;99.90;;;;;;5096628;28;20173;-61
2024/01/05 07:46:28;;;;;;;1.00;0.60;;;7.30;99.90;;;;;;5096696;28;20202;-61
2024/01/05 07:48:54;;;;;;;1.02;0.60;;;7.20;99.90;;;;;;5096715;28;20178;-61
2024/01/05 07:51:20;;;;;;;0.65;0.60;;;7.20;99.90;;;;;;5096772;28;20173;-62
2024/01/05 07:53:48;;;;;;;1.17;0.57;;;7.20;99.90;;;;;;5096447;28;20195;-62
2024/01/05 07:56:17;;;;;;;1.40;0.70;;;7.20;99.90;;;;;;5096598;28;20213;-62
2024/01/05 07:58:45;;;;;;;1.13;0.90;;;7.20;99.90;;;;;;5096072;28;20187;-62
2024/01/05 08:01:16;;;;;;;0.98;0.68;;;7.20;99.90;;;;;;5096184;28;20722;-62
2024/01/05 08:03:42;;;;;;;1.65;0.88;;;7.10;99.90;;;;;;5096496;28;20169;-62
2024/01/05 08:06:12;;;;;;;2.67;1.10;;;7.10;99.90;;;;;;5096198;28;20626;-62
2024/01/05 08:08:41;;;;;;;1.33;1.23;;;7.20;99.90;;;;;;5096626;28;20164;-62
2024/01/05 08:11:06;;;;;;;1.55;1.25;;;7.30;99.90;;;;;;5096365;28;20535;-62
2024/01/05 08:13:32;;;;;;;2.35;1.30;;;7.20;99.90;;;;;;5096320;28;20174;-63
2024/01/05 08:15:58;;;;;;;2.08;1.45;;;7.20;99.90;;;;;;5096403;28;20672;-62
2024/01/05 08:18:24;;;;;;;1.92;1.30;;;7.10;99.90;;;;;;5096119;28;20174;-62
2024/01/05 08:20:49;;;;;;;4.57;1.45;;;7.10;99.90;;;;;;5096827;28;20189;-62
2024/01/05 08:23:15;;;;;;;4.72;1.58;;;7.10;99.90;;;;;;5096107;28;20177;-62
2024/01/05 08:25:40;;;;;;;1.65;1.10;;;7.10;99.90;;;;;;5096433;28;20168;-62
2024/01/05 08:28:06;;;;;;;1.90;1.38;;;7.20;99.90;;;;;;5096174;28;20201;-62
2024/01/05 08:30:32;;;;;;;2.28;1.50;;;7.20;99.90;;;;;;5096108;28;20184;-62
2024/01/05 08:32:57;;;;;;;1.38;1.25;;;7.20;99.90;;;;;;5096119;28;20181;-62
2024/01/05 08:35:23;;;;;;;3.30;1.40;;;7.20;99.90;;;;;;5096160;28;20519;-62
2024/01/05 08:37:49;;;;;;;3.22;1.70;;;7.30;99.90;;;;;;5095961;28;20212;-62
2024/01/05 08:40:15;;;;;;;3.80;1.58;;;7.20;99.90;;;;;;5096093;28;20171;-62
2024/01/05 08:42:41;;;;;;;3.33;1.52;;;7.30;99.90;;;;;;5094894;28;20176;-62
2024/01/05 08:45:07;;;;;;;1.40;1.30;;;7.20;99.90;;;;;;5095936;28;20174;-62
2024/01/05 08:47:33;;;;;;;1.92;1.30;;;7.10;99.90;;;;;;5095760;28;20224;-61
2024/01/05 08:49:59;;;;;;;1.25;1.10;;;7.10;99.90;;;;;;5095495;28;20180;-62
2024/01/05 08:52:24;;;;;;;2.55;1.17;;;7.30;99.90;;;;;;5095515;28;20172;-61
2024/01/05 08:54:50;;;;;;;1.63;1.17;;;7.20;99.90;;;;;;5095797;28;20176;-62
2024/01/05 08:57:17;;;;;;;1.40;1.00;;;7.20;99.90;;;;;;5095810;28;20185;-62
2024/01/05 08:59:43;;;;;;;1.13;1.02;;;7.30;99.90;;;;;;5095547;28;20238;-62
2024/01/05 09:02:09;;;;;;;2.28;1.08;;;7.40;99.90;;;;;;5095519;28;20574;-62
2024/01/05 09:04:34;;;;;;;1.35;1.17;;;7.30;99.90;;;;;;5090967;28;20177;-62
2024/01/05 09:07:00;;;;;;;2.00;0.93;;;7.30;99.90;;;;;;5075079;28;20202;-62
2024/01/05 09:09:26;;;;;;;1.50;1.05;;;7.20;99.90;;;;;;5075056;28;20224;-60
2024/01/05 09:11:51;;;;;;;1.73;1.10;;;7.20;99.90;;;;;;5075079;28;20182;-61
2024/01/05 09:14:17;;;;;;;2.22;1.10;;;7.30;99.90;;;;;;5074876;28;20512;-62
2024/01/05 09:16:42;;;;;;;1.65;1.10;;;7.30;99.90;;;;;;5075209;28;20178;-62
2024/01/05 09:19:08;;;;;;;1.65;1.10;;;7.30;99.90;;;;;;5075116;28;20178;-61
2024/01/05 09:21:34;;;;;;;1.25;1.02;;;7.40;99.90;;;;;;5074807;28;20239;-62
2024/01/05 09:24:00;;;;;;;1.17;1.00;;;7.20;99.90;;;;;;5074685;28;20226;-62
2024/01/05 09:26:26;;;;;;;1.52;1.00;;;7.30;99.90;;;;;;5074520;28;20667;-61
2024/01/05 09:28:51;;;;;;;1.73;1.00;;;7.30;99.90;;;;;;5074327;28;20193;-62
2024/01/05 09:31:17;;;;;;;1.17;0.90;;;7.40;99.90;;;;;;5074514;28;20175;-62
2024/01/05 09:33:43;;;;;;;1.77;0.93;;;7.30;99.90;;;;;;5074565;28;20189;-62
2024/01/05 09:36:09;;;;;;;2.45;0.93;;;7.30;99.90;;;;;;5074691;28;20175;-62
2024/01/05 09:38:36;;;;;;;1.55;1.10;;;7.20;99.90;;;;;;5074552;28;20209;-62
2024/01/05 09:41:02;;;;;;;1.40;1.20;;;7.30;99.90;;;;;;5074588;28;20174;-61
2024/01/05 09:43:28;;;;;;;2.78;1.42;;;7.40;99.90;;;;;;5074461;28;20201;-62
2024/01/05 09:45:55;;;;;;;1.33;1.00;;;7.40;99.90;;;;;;5074104;28;20509;-62
2024/01/05 09:48:22;;;;;;;4.05;1.50;;;7.40;99.90;;;;;;5074145;28;20588;-62
2024/01/05 09:50:54;;;;;;;1.40;1.30;;;7.40;99.90;;;;;;5074402;28;20595;-62
2024/01/05 09:53:20;;;;;;;2.10;1.90;;;7.30;99.90;;;;;;5074225;28;20682;-62
2024/01/05 09:55:50;;;;;;;3.10;1.70;;;7.40;99.90;;;;;;5074252;28;20182;-63
2024/01/05 09:58:16;;;;;;;2.35;1.60;;;7.40;99.90;;;;;;5074250;28;20167;-63
2024/01/05 10:00:46;;;;;;;3.17;1.70;;;7.30;99.90;;;;;;5073817;28;20550;-62
2024/01/05 10:03:20;;;;;;;2.42;1.58;;;7.30;99.90;;;;;;5074165;28;20244;-62
2024/01/05 10:05:49;;;;;;;3.17;1.75;;;7.30;99.90;;;;;;5074165;28;20248;-62
2024/01/05 10:08:14;;;;;;;2.38;1.77;;;7.30;99.90;;;;;;5073940;28;20198;-62
2024/01/05 10:10:46;;;;;;;2.03;1.83;;;7.40;99.90;;;;;;5073691;28;20250;-62
2024/01/05 10:13:12;;;;;;;2.63;2.08;;;7.40;99.90;;;;;;5073682;28;20520;-62
2024/01/05 10:15:54;;;;;;;2.80;1.80;;;7.50;99.90;;;;;;5074194;28;20177;-62
2024/01/05 10:18:20;;;;;;;2.42;1.75;;;7.50;99.90;;;;;;5073912;28;20179;-62
2024/01/05 10:20:46;;;;;;;2.42;2.22;;;7.50;99.90;;;;;;5073880;28;20216;-62
2024/01/05 10:23:13;;;;;;;3.35;2.15;;;7.60;99.90;;;;;;5073516;28;20234;-62
2024/01/05 10:25:39;;;;;;;2.70;2.20;;;7.70;99.90;;;;;;5073823;28;20167;-62
2024/01/05 10:28:26;;;;;;;2.83;2.05;;;7.60;99.90;;;;;;5073674;28;20221;-61
2024/01/05 10:30:52;;;;;;;2.55;2.03;;;7.50;99.90;;;;;;5079330;28;20189;-62
2024/01/05 10:33:21;;;;;;;3.70;2.00;;;7.60;99.90;;;;;;5088042;28;20170;-62
2024/01/05 10:35:46;;;;;;;3.38;1.85;;;7.40;99.90;;;;;;5093854;28;20174;-62
2024/01/05 10:38:13;;;;;;;2.85;2.25;;;7.40;99.90;;;;;;5093814;28;20181;-61
2024/01/05 10:40:40;;;;;;;4.35;2.40;;;7.40;99.90;;;;;;5093499;28;20539;-61
2024/01/05 10:43:12;;;;;;;4.72;2.40;;;7.40;99.90;;;;;;5093692;28;20177;-61
2024/01/05 10:45:42;;;;;;;3.83;2.25;;;7.60;99.90;;;;;;5093797;28;20170;-62
2024/01/05 10:48:11;;;;;;;5.20;2.60;;;7.50;99.90;;;;;;5093333;28;20596;-61
2024/01/05 10:50:37;;;;;;;2.70;2.40;;;7.50;99.90;;;;;;5093634;28;20269;-62
2024/01/05 10:53:14;;;;;;;5.20;3.20;;;7.40;99.90;;;;;;5093498;28;20174;-62
2024/01/05 10:55:42;;;;;;;4.07;2.63;;;7.40;99.90;;;;;;5094012;28;20185;-62
2024/01/05 10:58:08;;;;;;;5.25;3.00;;;7.50;99.90;;;;;;5093615;28;20514;-62
2024/01/05 11:00:34;;;;;;;3.85;2.90;;;7.40;99.90;;;;;;5093562;28;20178;-61
2024/01/05 11:03:09;;;;;;;5.82;3.45;;;7.30;99.90;;;;;;5093585;28;20230;-62
2024/01/05 11:05:36;;;;;;;6.00;3.33;;;7.30;99.90;;;;;;5093742;28;20164;-61
2024/01/05 11:08:05;;;;;;;4.72;3.10;;;7.50;99.90;;;;;;5097718;28;20197;-62
2024/01/05 11:10:45;;;;;;;5.82;3.83;;;7.50;99.90;;;;;;5097759;28;20170;-62
2024/01/05 11:13:22;;;;;;;7.00;4.05;;;7.50;99.90;;;;;;5097754;28;20164;-61
2024/01/05 11:16:07;;;;;;;5.93;3.65;;;7.50;99.90;;;;;;5097721;28;20166;-61
2024/01/05 11:18:55;;;;;;;5.22;3.80;;;7.60;99.90;;;;;;5097495;28;20253;-62
2024/01/05 11:21:24;;;;;;;8.50;4.68;;;7.60;99.90;;;;;;5097616;28;20587;-62
2024/01/05 11:23:53;;;;;;;6.13;4.70;;;7.40;99.90;;;;;;5097122;28;20269;-62
2024/01/05 11:26:52;;;;;;;5.07;3.55;;;7.50;99.90;;;;;;5097293;28;20200;-62
2024/01/05 11:29:45;;;;;;;4.82;3.67;;;7.50;99.90;;;;;;5052518;28;20576;-61
2024/01/05 11:32:31;;;;;;;6.28;3.70;;;7.50;99.90;;;;;;5097299;28;20198;-62
2024/01/05 11:34:57;;;;;;;7.30;3.78;;;7.70;99.90;;;;;;5096670;28;20189;-62
2024/01/05 11:37:30;;;;;;;5.47;4.20;;;7.60;99.90;;;;;;5097152;28;20298;-62
2024/01/05 11:39:59;;;;;;;7.00;4.28;;;7.70;99.90;;;;;;5093091;28;20179;-61
2024/01/05 11:42:24;;;;;;;5.13;4.07;;;7.70;99.90;;;;;;5092407;28;20235;-61
2024/01/05 11:44:51;;;;;;;8.27;5.13;;;7.80;99.90;;;;;;5096917;28;20170;-61
2024/01/05 11:47:43;;;;;;;6.82;4.80;;;7.80;99.90;;;;;;5096795;28;20197;-62
2024/01/05 11:50:24;;;;;;;5.90;5.03;;;7.70;99.90;;;;;;5096790;28;20676;-62
2024/01/05 11:53:09;;;;;;;9.18;5.47;;;7.70;99.90;;;;;;5096706;28;20201;-62
2024/01/05 11:55:40;;;;;;;7.90;5.03;;;7.70;99.90;;;;;;5096699;28;20180;-62
2024/01/05 11:58:10;;;;;;;5.68;4.70;;;7.80;99.90;;;;;;5096622;28;20173;-62
2024/01/05 12:00:36;;;;;;;5.57;4.95;;;7.90;99.90;;;;;;5096222;28;20176;-62
2024/01/05 12:03:05;;;;;;;6.25;5.20;;;7.90;99.90;;;;;;5096558;28;20263;-61
2024/01/05 12:05:33;;;;;;;7.53;5.15;;;8.00;99.90;;;;;;5096753;28;20683;-61
2024/01/05 12:08:00;;;;;;;5.97;4.47;;;7.90;99.90;;;;;;5096484;28;20243;-62
2024/01/05 12:10:27;;;;;;;6.13;4.63;;;8.00;99.90;;;;;;5096446;28;20255;-62
2024/01/05 12:12:54;;;;;;;6.25;4.70;;;7.70;99.90;;;;;;5096382;28;20177;-62
2024/01/05 12:15:21;;;;;;;6.75;4.45;;;7.80;99.90;;;;;;5096241;28;20508;-62
2024/01/05 12:17:47;;;;;;;7.40;4.97;;;7.80;99.90;;;;;;5096007;28;20173;-61
2024/01/05 12:20:14;;;;;;;6.32;4.70;;;7.90;99.90;;;;;;5096324;28;20174;-61
2024/01/05 12:22:41;;;;;;;6.03;4.72;;;7.90;99.90;;;;;;5096128;28;20205;-61
2024/01/05 12:25:07;;;;;;;5.15;3.83;;;7.90;99.90;;;;;;5096303;28;20244;-61
2024/01/05 12:27:40;;;;;;;5.10;3.97;;;7.80;99.90;;;;;;5096456;28;20254;-62
2024/01/05 12:30:10;;;;;;;4.70;3.60;;;7.80;99.90;;;;;;5095821;28;20639;-61
2024/01/05 12:32:36;;;;;;;5.20;4.18;;;7.70;99.90;;;;;;5096008;28;20170;-62
2024/01/05 12:35:03;;;;;;;4.03;3.65;;;7.60;99.90;;;;;;5096153;28;20219;-61
2024/01/05 12:37:29;;;;;;;4.20;3.72;;;7.60;99.90;;;;;;5095967;28;20189;-62
2024/01/05 12:40:10;;;;;;;4.40;3.92;;;7.70;99.90;;;;;;5095420;28;20181;-62
2024/01/05 12:42:37;;;;;;;5.82;4.10;;;7.60;99.90;;;;;;5075071;28;20603;-62
2024/01/05 12:45:08;;;;;;;4.97;3.80;;;7.70;99.90;;;;;;5075386;28;20189;-61
2024/01/05 12:47:34;;;;;;;5.70;3.80;;;7.80;99.90;;;;;;5075802;28;20229;-62
2024/01/05 12:50:04;;;;;;;4.45;4.07;;;7.70;99.90;;;;;;5075201;28;20179;-62
2024/01/05 12:52:36;;;;;;;4.20;3.63;;;7.80;99.90;;;;;;5075386;28;20213;-62